sensor_id;sensor_type;location;lat;lon;timestamp;P1;durP1;ratioP1;P2;durP2;ratioP2
24145;SDS011;12308;50.948;4.706;2023-03-21T00:02:08;22.80;;;9.05;;
24145;SDS011;12308;50.948;4.706;2023-03-21T00:04:34;23.50;;;8.75;;
24145;SDS011;12308;50.948;4.706;2023-03-21T00:07:00;27.15;;;8.82;;
24145;SDS011;12308;50.948;4.706;2023-03-21T00:09:26;24.52;;;10.13;;
24145;SDS011;12308;50.948;4.706;2023-03-21T00:11:51;25.13;;;9.45;;
24145;SDS011;12308;50.948;4.706;2023-03-21T00:14:17;24.77;;;9.80;;
24145;SDS011;12308;50.948;4.706;2023-03-21T00:16:44;22.20;;;9.27;;
24145;SDS011;12308;50.948;4.706;2023-03-21T00:19:14;25.47;;;10.50;;
24145;SDS011;12308;50.948;4.706;2023-03-21T00:21:40;21.83;;;9.68;;
24145;SDS011;12308;50.948;4.706;2023-03-21T00:24:10;20.23;;;9.77;;
24145;SDS011;12308;50.948;4.706;2023-03-21T00:26:36;23.95;;;10.63;;
24145;SDS011;12308;50.948;4.706;2023-03-21T00:29:02;27.40;;;10.10;;
24145;SDS011;12308;50.948;4.706;2023-03-21T00:31:28;24.02;;;10.32;;
24145;SDS011;12308;50.948;4.706;2023-03-21T00:33:53;24.33;;;10.27;;
24145;SDS011;12308;50.948;4.706;2023-03-21T00:36:19;23.45;;;10.25;;
24145;SDS011;12308;50.948;4.706;2023-03-21T00:38:45;23.63;;;10.15;;
24145;SDS011;12308;50.948;4.706;2023-03-21T00:41:11;31.05;;;11.75;;
24145;SDS011;12308;50.948;4.706;2023-03-21T00:43:40;19.17;;;9.75;;
24145;SDS011;12308;50.948;4.706;2023-03-21T00:46:06;24.75;;;10.20;;
24145;SDS011;12308;50.948;4.706;2023-03-21T00:48:32;28.45;;;11.07;;
24145;SDS011;12308;50.948;4.706;2023-03-21T00:50:58;23.00;;;10.35;;
24145;SDS011;12308;50.948;4.706;2023-03-21T00:53:24;23.67;;;10.35;;
24145;SDS011;12308;50.948;4.706;2023-03-21T00:55:50;23.10;;;10.30;;
24145;SDS011;12308;50.948;4.706;2023-03-21T00:58:16;20.92;;;9.55;;
24145;SDS011;12308;50.948;4.706;2023-03-21T01:00:42;23.27;;;9.93;;
24145;SDS011;12308;50.948;4.706;2023-03-21T01:03:10;27.85;;;10.00;;
24145;SDS011;12308;50.948;4.706;2023-03-21T01:05:39;23.23;;;9.77;;
24145;SDS011;12308;50.948;4.706;2023-03-21T01:08:28;24.27;;;10.52;;
24145;SDS011;12308;50.948;4.706;2023-03-21T01:11:00;25.88;;;9.95;;
24145;SDS011;12308;50.948;4.706;2023-03-21T01:13:28;25.60;;;10.38;;
24145;SDS011;12308;50.948;4.706;2023-03-21T01:15:54;21.77;;;9.93;;
24145;SDS011;12308;50.948;4.706;2023-03-21T01:18:22;26.25;;;10.23;;
24145;SDS011;12308;50.948;4.706;2023-03-21T01:20:51;25.10;;;9.43;;
24145;SDS011;12308;50.948;4.706;2023-03-21T01:23:17;26.17;;;10.00;;
24145;SDS011;12308;50.948;4.706;2023-03-21T01:25:42;23.77;;;9.88;;
24145;SDS011;12308;50.948;4.706;2023-03-21T01:28:08;27.58;;;9.40;;
24145;SDS011;12308;50.948;4.706;2023-03-21T01:30:35;27.50;;;9.90;;
24145;SDS011;12308;50.948;4.706;2023-03-21T01:33:00;20.45;;;8.60;;
24145;SDS011;12308;50.948;4.706;2023-03-21T01:35:26;23.02;;;9.38;;
24145;SDS011;12308;50.948;4.706;2023-03-21T01:37:52;28.17;;;9.63;;
24145;SDS011;12308;50.948;4.706;2023-03-21T01:40:18;24.73;;;9.43;;
24145;SDS011;12308;50.948;4.706;2023-03-21T01:42:49;15.82;;;8.65;;
24145;SDS011;12308;50.948;4.706;2023-03-21T01:48:18;21.20;;;9.00;;
24145;SDS011;12308;50.948;4.706;2023-03-21T01:50:45;30.88;;;8.98;;
24145;SDS011;12308;50.948;4.706;2023-03-21T01:53:11;22.58;;;9.27;;
24145;SDS011;12308;50.948;4.706;2023-03-21T01:55:38;18.55;;;8.82;;
24145;SDS011;12308;50.948;4.706;2023-03-21T01:58:05;27.55;;;8.98;;
24145;SDS011;12308;50.948;4.706;2023-03-21T02:00:32;24.35;;;9.38;;
24145;SDS011;12308;50.948;4.706;2023-03-21T02:02:59;19.10;;;8.95;;
24145;SDS011;12308;50.948;4.706;2023-03-21T02:05:31;22.80;;;8.93;;
24145;SDS011;12308;50.948;4.706;2023-03-21T02:08:16;30.13;;;9.77;;
24145;SDS011;12308;50.948;4.706;2023-03-21T02:10:42;18.88;;;9.65;;
24145;SDS011;12308;50.948;4.706;2023-03-21T02:13:09;21.40;;;9.32;;
24145;SDS011;12308;50.948;4.706;2023-03-21T02:16:19;25.40;;;8.73;;
24145;SDS011;12308;50.948;4.706;2023-03-21T02:18:45;20.75;;;8.63;;
24145;SDS011;12308;50.948;4.706;2023-03-21T02:24:24;24.85;;;8.82;;
24145;SDS011;12308;50.948;4.706;2023-03-21T02:26:56;22.55;;;8.75;;
24145;SDS011;12308;50.948;4.706;2023-03-21T02:44:13;25.63;;;8.93;;
24145;SDS011;12308;50.948;4.706;2023-03-21T02:47:02;23.05;;;9.73;;
24145;SDS011;12308;50.948;4.706;2023-03-21T02:49:34;24.35;;;9.10;;
24145;SDS011;12308;50.948;4.706;2023-03-21T02:52:10;25.05;;;8.82;;
24145;SDS011;12308;50.948;4.706;2023-03-21T02:54:40;22.90;;;9.40;;
24145;SDS011;12308;50.948;4.706;2023-03-21T02:57:08;24.17;;;8.35;;
24145;SDS011;12308;50.948;4.706;2023-03-21T02:59:34;24.83;;;9.02;;
24145;SDS011;12308;50.948;4.706;2023-03-21T03:02:02;25.15;;;9.27;;
24145;SDS011;12308;50.948;4.706;2023-03-21T03:04:29;20.00;;;8.70;;
24145;SDS011;12308;50.948;4.706;2023-03-21T03:23:43;25.52;;;7.78;;
24145;SDS011;12308;50.948;4.706;2023-03-21T03:26:12;21.33;;;8.07;;
24145;SDS011;12308;50.948;4.706;2023-03-21T03:29:00;17.60;;;7.35;;
24145;SDS011;12308;50.948;4.706;2023-03-21T03:31:32;20.25;;;6.97;;
24145;SDS011;12308;50.948;4.706;2023-03-21T03:34:08;18.98;;;6.97;;
24145;SDS011;12308;50.948;4.706;2023-03-21T03:36:41;27.10;;;6.82;;
24145;SDS011;12308;50.948;4.706;2023-03-21T03:39:15;18.95;;;6.85;;
24145;SDS011;12308;50.948;4.706;2023-03-21T03:44:25;20.90;;;6.22;;
24145;SDS011;12308;50.948;4.706;2023-03-21T03:47:05;18.08;;;6.07;;
24145;SDS011;12308;50.948;4.706;2023-03-21T03:49:45;16.92;;;5.75;;
24145;SDS011;12308;50.948;4.706;2023-03-21T03:52:21;17.38;;;5.90;;
24145;SDS011;12308;50.948;4.706;2023-03-21T03:54:52;18.58;;;6.20;;
24145;SDS011;12308;50.948;4.706;2023-03-21T03:57:18;20.08;;;6.28;;
24145;SDS011;12308;50.948;4.706;2023-03-21T03:59:45;17.20;;;5.95;;
24145;SDS011;12308;50.948;4.706;2023-03-21T04:02:11;15.15;;;6.00;;
24145;SDS011;12308;50.948;4.706;2023-03-21T04:04:38;21.98;;;6.05;;
24145;SDS011;12308;50.948;4.706;2023-03-21T04:07:05;16.20;;;5.38;;
24145;SDS011;12308;50.948;4.706;2023-03-21T04:09:31;15.63;;;6.30;;
24145;SDS011;12308;50.948;4.706;2023-03-21T04:11:57;14.73;;;5.60;;
24145;SDS011;12308;50.948;4.706;2023-03-21T04:14:23;15.18;;;5.85;;
24145;SDS011;12308;50.948;4.706;2023-03-21T04:16:49;25.27;;;6.07;;
24145;SDS011;12308;50.948;4.706;2023-03-21T04:19:16;17.50;;;5.90;;
24145;SDS011;12308;50.948;4.706;2023-03-21T04:21:43;19.67;;;6.38;;
24145;SDS011;12308;50.948;4.706;2023-03-21T04:24:10;22.33;;;5.88;;
24145;SDS011;12308;50.948;4.706;2023-03-21T04:26:36;19.08;;;5.82;;
24145;SDS011;12308;50.948;4.706;2023-03-21T04:29:02;21.15;;;6.50;;
24145;SDS011;12308;50.948;4.706;2023-03-21T04:31:28;21.67;;;7.22;;
24145;SDS011;12308;50.948;4.706;2023-03-21T04:33:59;20.65;;;6.85;;
24145;SDS011;12308;50.948;4.706;2023-03-21T04:36:26;19.87;;;7.00;;
24145;SDS011;12308;50.948;4.706;2023-03-21T04:38:55;20.75;;;7.45;;
24145;SDS011;12308;50.948;4.706;2023-03-21T04:41:25;24.97;;;7.70;;
24145;SDS011;12308;50.948;4.706;2023-03-21T04:43:54;18.83;;;7.68;;
24145;SDS011;12308;50.948;4.706;2023-03-21T04:46:20;18.77;;;8.15;;
24145;SDS011;12308;50.948;4.706;2023-03-21T04:48:46;20.63;;;7.93;;
24145;SDS011;12308;50.948;4.706;2023-03-21T04:51:13;25.92;;;8.25;;
24145;SDS011;12308;50.948;4.706;2023-03-21T04:53:39;19.83;;;8.52;;
24145;SDS011;12308;50.948;4.706;2023-03-21T04:56:09;30.65;;;9.32;;
24145;SDS011;12308;50.948;4.706;2023-03-21T04:58:35;27.65;;;9.10;;
24145;SDS011;12308;50.948;4.706;2023-03-21T05:01:01;23.20;;;8.98;;
24145;SDS011;12308;50.948;4.706;2023-03-21T05:03:30;25.95;;;9.43;;
24145;SDS011;12308;50.948;4.706;2023-03-21T05:05:59;29.92;;;9.60;;
24145;SDS011;12308;50.948;4.706;2023-03-21T05:08:25;21.10;;;9.25;;
24145;SDS011;12308;50.948;4.706;2023-03-21T05:10:50;20.90;;;9.23;;
24145;SDS011;12308;50.948;4.706;2023-03-21T05:13:16;26.17;;;9.77;;
24145;SDS011;12308;50.948;4.706;2023-03-21T05:15:42;24.45;;;9.52;;
24145;SDS011;12308;50.948;4.706;2023-03-21T05:18:07;24.73;;;9.15;;
24145;SDS011;12308;50.948;4.706;2023-03-21T05:20:39;24.90;;;9.20;;
24145;SDS011;12308;50.948;4.706;2023-03-21T05:23:09;23.63;;;9.93;;
24145;SDS011;12308;50.948;4.706;2023-03-21T05:25:38;27.05;;;10.30;;
24145;SDS011;12308;50.948;4.706;2023-03-21T05:28:05;36.72;;;9.93;;
24145;SDS011;12308;50.948;4.706;2023-03-21T05:30:31;33.08;;;10.57;;
24145;SDS011;12308;50.948;4.706;2023-03-21T05:32:57;25.20;;;10.32;;
24145;SDS011;12308;50.948;4.706;2023-03-21T05:35:23;23.80;;;9.63;;
24145;SDS011;12308;50.948;4.706;2023-03-21T05:37:49;28.55;;;9.27;;
24145;SDS011;12308;50.948;4.706;2023-03-21T05:40:14;23.17;;;10.30;;
24145;SDS011;12308;50.948;4.706;2023-03-21T05:42:40;26.98;;;9.63;;
24145;SDS011;12308;50.948;4.706;2023-03-21T05:45:06;27.70;;;10.50;;
24145;SDS011;12308;50.948;4.706;2023-03-21T05:47:32;27.58;;;10.73;;
24145;SDS011;12308;50.948;4.706;2023-03-21T05:49:57;25.95;;;10.23;;
24145;SDS011;12308;50.948;4.706;2023-03-21T05:52:23;34.65;;;11.35;;
24145;SDS011;12308;50.948;4.706;2023-03-21T05:54:49;31.02;;;11.57;;
24145;SDS011;12308;50.948;4.706;2023-03-21T05:57:14;26.67;;;10.65;;
24145;SDS011;12308;50.948;4.706;2023-03-21T05:59:43;28.88;;;11.85;;
24145;SDS011;12308;50.948;4.706;2023-03-21T06:02:09;30.80;;;11.10;;
24145;SDS011;12308;50.948;4.706;2023-03-21T06:04:35;28.80;;;11.88;;
24145;SDS011;12308;50.948;4.706;2023-03-21T06:07:01;26.80;;;11.20;;
24145;SDS011;12308;50.948;4.706;2023-03-21T06:09:27;26.55;;;10.60;;
24145;SDS011;12308;50.948;4.706;2023-03-21T06:11:54;21.25;;;10.07;;
24145;SDS011;12308;50.948;4.706;2023-03-21T06:14:21;29.30;;;10.60;;
24145;SDS011;12308;50.948;4.706;2023-03-21T06:16:47;22.83;;;9.45;;
24145;SDS011;12308;50.948;4.706;2023-03-21T06:19:13;23.30;;;10.43;;
24145;SDS011;12308;50.948;4.706;2023-03-21T06:21:39;21.27;;;9.85;;
24145;SDS011;12308;50.948;4.706;2023-03-21T06:24:05;29.40;;;9.98;;
24145;SDS011;12308;50.948;4.706;2023-03-21T06:26:30;28.77;;;10.82;;
24145;SDS011;12308;50.948;4.706;2023-03-21T06:28:56;28.67;;;12.00;;
24145;SDS011;12308;50.948;4.706;2023-03-21T06:31:22;19.58;;;10.52;;
24145;SDS011;12308;50.948;4.706;2023-03-21T06:33:49;29.33;;;11.60;;
24145;SDS011;12308;50.948;4.706;2023-03-21T06:36:15;29.15;;;10.57;;
24145;SDS011;12308;50.948;4.706;2023-03-21T06:38:42;32.10;;;11.55;;
24145;SDS011;12308;50.948;4.706;2023-03-21T06:41:07;27.92;;;11.48;;
24145;SDS011;12308;50.948;4.706;2023-03-21T06:43:34;29.80;;;10.90;;
24145;SDS011;12308;50.948;4.706;2023-03-21T06:46:00;31.90;;;11.23;;
24145;SDS011;12308;50.948;4.706;2023-03-21T06:48:26;36.35;;;12.18;;
24145;SDS011;12308;50.948;4.706;2023-03-21T06:50:52;26.60;;;12.50;;
24145;SDS011;12308;50.948;4.706;2023-03-21T06:53:19;32.50;;;11.18;;
24145;SDS011;12308;50.948;4.706;2023-03-21T06:55:48;32.22;;;11.02;;
24145;SDS011;12308;50.948;4.706;2023-03-21T06:58:15;25.80;;;10.20;;
24145;SDS011;12308;50.948;4.706;2023-03-21T07:00:42;31.88;;;11.45;;
24145;SDS011;12308;50.948;4.706;2023-03-21T07:03:09;31.08;;;11.88;;
24145;SDS011;12308;50.948;4.706;2023-03-21T07:05:36;34.92;;;12.48;;
24145;SDS011;12308;50.948;4.706;2023-03-21T07:08:03;36.58;;;13.48;;
24145;SDS011;12308;50.948;4.706;2023-03-21T07:10:29;37.30;;;15.27;;
24145;SDS011;12308;50.948;4.706;2023-03-21T07:12:57;26.45;;;13.45;;
24145;SDS011;12308;50.948;4.706;2023-03-21T07:15:23;33.20;;;13.23;;
24145;SDS011;12308;50.948;4.706;2023-03-21T07:17:48;34.00;;;12.70;;
24145;SDS011;12308;50.948;4.706;2023-03-21T07:20:14;28.10;;;12.05;;
24145;SDS011;12308;50.948;4.706;2023-03-21T07:22:40;27.45;;;11.85;;
24145;SDS011;12308;50.948;4.706;2023-03-21T07:25:06;29.00;;;11.52;;
24145;SDS011;12308;50.948;4.706;2023-03-21T07:27:32;32.42;;;13.32;;
24145;SDS011;12308;50.948;4.706;2023-03-21T07:29:57;30.52;;;11.85;;
24145;SDS011;12308;50.948;4.706;2023-03-21T07:32:23;32.20;;;11.25;;
24145;SDS011;12308;50.948;4.706;2023-03-21T07:34:54;31.30;;;10.97;;
24145;SDS011;12308;50.948;4.706;2023-03-21T07:37:20;30.27;;;11.93;;
24145;SDS011;12308;50.948;4.706;2023-03-21T07:39:46;26.23;;;11.20;;
24145;SDS011;12308;50.948;4.706;2023-03-21T07:42:11;32.45;;;11.93;;
24145;SDS011;12308;50.948;4.706;2023-03-21T07:44:37;28.48;;;10.35;;
24145;SDS011;12308;50.948;4.706;2023-03-21T07:47:03;27.73;;;12.02;;
24145;SDS011;12308;50.948;4.706;2023-03-21T07:49:31;34.38;;;16.85;;
24145;SDS011;12308;50.948;4.706;2023-03-21T07:51:57;34.47;;;16.40;;
24145;SDS011;12308;50.948;4.706;2023-03-21T07:54:23;26.20;;;10.40;;
24145;SDS011;12308;50.948;4.706;2023-03-21T07:56:49;27.20;;;8.85;;
24145;SDS011;12308;50.948;4.706;2023-03-21T07:59:15;28.27;;;8.63;;
24145;SDS011;12308;50.948;4.706;2023-03-21T08:01:40;28.17;;;11.38;;
24145;SDS011;12308;50.948;4.706;2023-03-21T08:04:06;18.92;;;7.93;;
24145;SDS011;12308;50.948;4.706;2023-03-21T08:06:32;26.92;;;12.52;;
24145;SDS011;12308;50.948;4.706;2023-03-21T08:08:58;23.80;;;9.43;;
24145;SDS011;12308;50.948;4.706;2023-03-21T08:11:23;22.45;;;7.97;;
24145;SDS011;12308;50.948;4.706;2023-03-21T08:13:49;19.92;;;7.32;;
24145;SDS011;12308;50.948;4.706;2023-03-21T08:16:15;22.00;;;7.20;;
24145;SDS011;12308;50.948;4.706;2023-03-21T08:18:41;12.05;;;5.90;;
24145;SDS011;12308;50.948;4.706;2023-03-21T08:21:07;16.58;;;5.93;;
24145;SDS011;12308;50.948;4.706;2023-03-21T08:23:33;15.93;;;6.25;;
24145;SDS011;12308;50.948;4.706;2023-03-21T08:26:00;15.18;;;6.00;;
24145;SDS011;12308;50.948;4.706;2023-03-21T08:28:26;12.90;;;5.10;;
24145;SDS011;12308;50.948;4.706;2023-03-21T08:30:52;13.18;;;5.53;;
24145;SDS011;12308;50.948;4.706;2023-03-21T08:33:17;13.93;;;5.20;;
24145;SDS011;12308;50.948;4.706;2023-03-21T08:35:43;12.50;;;5.13;;
24145;SDS011;12308;50.948;4.706;2023-03-21T08:38:09;13.60;;;5.60;;
24145;SDS011;12308;50.948;4.706;2023-03-21T08:40:35;15.10;;;5.93;;
24145;SDS011;12308;50.948;4.706;2023-03-21T08:43:00;14.93;;;5.28;;
24145;SDS011;12308;50.948;4.706;2023-03-21T08:45:26;14.95;;;5.70;;
24145;SDS011;12308;50.948;4.706;2023-03-21T08:47:52;16.48;;;6.10;;
24145;SDS011;12308;50.948;4.706;2023-03-21T08:50:20;16.27;;;6.18;;
24145;SDS011;12308;50.948;4.706;2023-03-21T08:52:47;20.17;;;6.85;;
24145;SDS011;12308;50.948;4.706;2023-03-21T08:55:14;15.73;;;6.45;;
24145;SDS011;12308;50.948;4.706;2023-03-21T08:57:41;17.67;;;6.13;;
24145;SDS011;12308;50.948;4.706;2023-03-21T09:00:08;15.38;;;6.82;;
24145;SDS011;12308;50.948;4.706;2023-03-21T09:05:07;20.38;;;6.32;;
24145;SDS011;12308;50.948;4.706;2023-03-21T09:07:36;21.48;;;6.22;;
24145;SDS011;12308;50.948;4.706;2023-03-21T09:10:02;17.15;;;6.13;;
24145;SDS011;12308;50.948;4.706;2023-03-21T09:12:29;22.73;;;6.70;;
24145;SDS011;12308;50.948;4.706;2023-03-21T09:14:55;25.38;;;7.35;;
24145;SDS011;12308;50.948;4.706;2023-03-21T09:17:21;18.70;;;7.28;;
24145;SDS011;12308;50.948;4.706;2023-03-21T09:19:47;23.83;;;7.38;;
24145;SDS011;12308;50.948;4.706;2023-03-21T09:22:14;17.25;;;6.63;;
24145;SDS011;12308;50.948;4.706;2023-03-21T09:24:43;14.52;;;6.80;;
24145;SDS011;12308;50.948;4.706;2023-03-21T09:27:13;14.05;;;6.13;;
24145;SDS011;12308;50.948;4.706;2023-03-21T09:29:42;13.48;;;6.30;;
24145;SDS011;12308;50.948;4.706;2023-03-21T09:32:09;21.45;;;6.15;;
24145;SDS011;12308;50.948;4.706;2023-03-21T09:34:36;18.50;;;6.55;;
24145;SDS011;12308;50.948;4.706;2023-03-21T09:37:07;15.40;;;6.72;;
24145;SDS011;12308;50.948;4.706;2023-03-21T09:39:39;17.38;;;7.15;;
24145;SDS011;12308;50.948;4.706;2023-03-21T09:45:00;15.07;;;6.78;;
24145;SDS011;12308;50.948;4.706;2023-03-21T09:47:30;16.38;;;6.40;;
24145;SDS011;12308;50.948;4.706;2023-03-21T09:50:15;14.65;;;6.30;;
24145;SDS011;12308;50.948;4.706;2023-03-21T09:55:23;16.55;;;6.25;;
24145;SDS011;12308;50.948;4.706;2023-03-21T09:57:59;17.33;;;6.15;;
24145;SDS011;12308;50.948;4.706;2023-03-21T10:00:31;18.17;;;6.10;;
24145;SDS011;12308;50.948;4.706;2023-03-21T10:03:04;19.50;;;7.15;;
24145;SDS011;12308;50.948;4.706;2023-03-21T10:05:47;16.33;;;6.35;;
24145;SDS011;12308;50.948;4.706;2023-03-21T10:08:20;17.27;;;6.45;;
24145;SDS011;12308;50.948;4.706;2023-03-21T10:10:52;17.58;;;6.57;;
24145;SDS011;12308;50.948;4.706;2023-03-21T10:13:28;15.70;;;5.85;;
24145;SDS011;12308;50.948;4.706;2023-03-21T10:16:20;18.75;;;6.22;;
24145;SDS011;12308;50.948;4.706;2023-03-21T10:18:55;16.83;;;6.07;;
24145;SDS011;12308;50.948;4.706;2023-03-21T10:21:24;13.95;;;5.70;;
24145;SDS011;12308;50.948;4.706;2023-03-21T10:23:52;15.80;;;7.07;;
24145;SDS011;12308;50.948;4.706;2023-03-21T10:26:21;15.45;;;5.75;;
24145;SDS011;12308;50.948;4.706;2023-03-21T10:28:51;13.07;;;5.95;;
24145;SDS011;12308;50.948;4.706;2023-03-21T10:31:24;14.18;;;5.97;;
24145;SDS011;12308;50.948;4.706;2023-03-21T10:33:56;14.52;;;6.13;;
24145;SDS011;12308;50.948;4.706;2023-03-21T10:36:27;18.73;;;6.68;;
24145;SDS011;12308;50.948;4.706;2023-03-21T10:39:01;14.98;;;5.43;;
24145;SDS011;12308;50.948;4.706;2023-03-21T10:41:32;15.63;;;5.57;;
24145;SDS011;12308;50.948;4.706;2023-03-21T10:44:12;12.93;;;5.72;;
24145;SDS011;12308;50.948;4.706;2023-03-21T10:46:50;13.05;;;5.47;;
24145;SDS011;12308;50.948;4.706;2023-03-21T10:49:18;13.63;;;5.07;;
24145;SDS011;12308;50.948;4.706;2023-03-21T10:51:46;15.98;;;5.10;;
24145;SDS011;12308;50.948;4.706;2023-03-21T10:54:20;13.77;;;5.32;;
24145;SDS011;12308;50.948;4.706;2023-03-21T10:59:22;15.38;;;5.50;;
24145;SDS011;12308;50.948;4.706;2023-03-21T11:01:49;13.75;;;4.93;;
24145;SDS011;12308;50.948;4.706;2023-03-21T11:04:17;15.40;;;4.90;;
24145;SDS011;12308;50.948;4.706;2023-03-21T11:06:53;15.63;;;5.28;;
24145;SDS011;12308;50.948;4.706;2023-03-21T11:09:22;11.88;;;5.25;;
24145;SDS011;12308;50.948;4.706;2023-03-21T11:14:40;12.20;;;5.40;;
24145;SDS011;12308;50.948;4.706;2023-03-21T11:17:22;10.77;;;5.00;;
24145;SDS011;12308;50.948;4.706;2023-03-21T11:22:21;13.00;;;5.47;;
24145;SDS011;12308;50.948;4.706;2023-03-21T11:24:53;10.98;;;5.32;;
24145;SDS011;12308;50.948;4.706;2023-03-21T11:27:23;13.32;;;5.55;;
24145;SDS011;12308;50.948;4.706;2023-03-21T11:29:53;17.37;;;5.57;;
24145;SDS011;12308;50.948;4.706;2023-03-21T11:32:37;10.40;;;4.97;;
24145;SDS011;12308;50.948;4.706;2023-03-21T11:35:17;14.63;;;5.15;;
24145;SDS011;12308;50.948;4.706;2023-03-21T11:37:48;13.10;;;5.47;;
24145;SDS011;12308;50.948;4.706;2023-03-21T11:42:49;12.55;;;5.07;;
24145;SDS011;12308;50.948;4.706;2023-03-21T11:45:18;16.35;;;5.70;;
24145;SDS011;12308;50.948;4.706;2023-03-21T11:47:46;15.35;;;4.82;;
24145;SDS011;12308;50.948;4.706;2023-03-21T11:58:00;11.95;;;5.10;;
24145;SDS011;12308;50.948;4.706;2023-03-21T12:03:46;13.38;;;5.13;;
24145;SDS011;12308;50.948;4.706;2023-03-21T12:20:39;16.25;;;6.70;;
24145;SDS011;12308;50.948;4.706;2023-03-21T12:23:16;14.88;;;7.07;;
24145;SDS011;12308;50.948;4.706;2023-03-21T12:39:40;12.90;;;6.93;;
24145;SDS011;12308;50.948;4.706;2023-03-21T12:45:19;14.13;;;7.78;;
24145;SDS011;12308;50.948;4.706;2023-03-21T12:47:58;16.35;;;6.30;;
24145;SDS011;12308;50.948;4.706;2023-03-21T12:50:37;15.90;;;6.75;;
24145;SDS011;12308;50.948;4.706;2023-03-21T12:53:16;16.13;;;6.20;;
24145;SDS011;12308;50.948;4.706;2023-03-21T12:56:06;12.85;;;6.25;;
24145;SDS011;12308;50.948;4.706;2023-03-21T12:58:40;12.73;;;5.88;;
24145;SDS011;12308;50.948;4.706;2023-03-21T13:01:10;11.75;;;4.82;;
24145;SDS011;12308;50.948;4.706;2023-03-21T13:06:31;10.05;;;3.88;;
24145;SDS011;12308;50.948;4.706;2023-03-21T13:09:01;8.40;;;3.63;;
24145;SDS011;12308;50.948;4.706;2023-03-21T13:11:36;8.85;;;3.65;;
24145;SDS011;12308;50.948;4.706;2023-03-21T13:19:29;13.93;;;4.60;;
24145;SDS011;12308;50.948;4.706;2023-03-21T13:24:58;8.73;;;4.22;;
24145;SDS011;12308;50.948;4.706;2023-03-21T13:27:30;9.00;;;4.32;;
24145;SDS011;12308;50.948;4.706;2023-03-21T13:35:03;9.75;;;5.15;;
24145;SDS011;12308;50.948;4.706;2023-03-21T13:37:41;14.43;;;7.68;;
24145;SDS011;12308;50.948;4.706;2023-03-21T13:40:46;16.05;;;7.95;;
24145;SDS011;12308;50.948;4.706;2023-03-21T13:48:55;11.95;;;6.00;;
24145;SDS011;12308;50.948;4.706;2023-03-21T14:05:02;11.18;;;5.85;;
24145;SDS011;12308;50.948;4.706;2023-03-21T14:07:32;12.07;;;6.72;;
24145;SDS011;12308;50.948;4.706;2023-03-21T14:10:01;12.18;;;6.38;;
24145;SDS011;12308;50.948;4.706;2023-03-21T14:12:34;16.52;;;7.32;;
24145;SDS011;12308;50.948;4.706;2023-03-21T14:15:25;16.15;;;7.32;;
24145;SDS011;12308;50.948;4.706;2023-03-21T14:17:59;14.80;;;7.15;;
24145;SDS011;12308;50.948;4.706;2023-03-21T14:20:29;16.58;;;6.93;;
24145;SDS011;12308;50.948;4.706;2023-03-21T14:23:04;15.77;;;6.53;;
24145;SDS011;12308;50.948;4.706;2023-03-21T14:25:37;15.77;;;5.93;;
24145;SDS011;12308;50.948;4.706;2023-03-21T14:28:05;21.88;;;7.57;;
24145;SDS011;12308;50.948;4.706;2023-03-21T14:30:38;15.80;;;7.47;;
24145;SDS011;12308;50.948;4.706;2023-03-21T14:35:46;18.77;;;5.57;;
24145;SDS011;12308;50.948;4.706;2023-03-21T14:38:18;19.88;;;6.82;;
24145;SDS011;12308;50.948;4.706;2023-03-21T14:40:46;14.55;;;6.68;;
24145;SDS011;12308;50.948;4.706;2023-03-21T14:43:13;13.95;;;5.88;;
24145;SDS011;12308;50.948;4.706;2023-03-21T14:45:39;19.55;;;6.90;;
24145;SDS011;12308;50.948;4.706;2023-03-21T14:48:07;17.73;;;6.68;;
24145;SDS011;12308;50.948;4.706;2023-03-21T14:50:48;14.10;;;6.82;;
24145;SDS011;12308;50.948;4.706;2023-03-21T14:53:19;18.08;;;8.30;;
24145;SDS011;12308;50.948;4.706;2023-03-21T14:58:32;12.75;;;5.82;;
24145;SDS011;12308;50.948;4.706;2023-03-21T15:01:03;14.57;;;5.75;;
24145;SDS011;12308;50.948;4.706;2023-03-21T15:03:32;16.50;;;5.28;;
24145;SDS011;12308;50.948;4.706;2023-03-21T15:05:58;10.70;;;5.65;;
24145;SDS011;12308;50.948;4.706;2023-03-21T15:08:26;13.35;;;6.38;;
24145;SDS011;12308;50.948;4.706;2023-03-21T15:11:11;12.98;;;6.07;;
24145;SDS011;12308;50.948;4.706;2023-03-21T15:13:44;11.60;;;6.20;;
24145;SDS011;12308;50.948;4.706;2023-03-21T15:16:14;9.88;;;5.43;;
24145;SDS011;12308;50.948;4.706;2023-03-21T15:18:40;12.70;;;6.18;;
24145;SDS011;12308;50.948;4.706;2023-03-21T15:21:22;13.23;;;5.53;;
24145;SDS011;12308;50.948;4.706;2023-03-21T15:23:55;11.93;;;6.03;;
24145;SDS011;12308;50.948;4.706;2023-03-21T15:26:24;9.68;;;5.90;;
24145;SDS011;12308;50.948;4.706;2023-03-21T15:28:54;8.48;;;5.72;;
24145;SDS011;12308;50.948;4.706;2023-03-21T15:31:23;12.93;;;5.80;;
24145;SDS011;12308;50.948;4.706;2023-03-21T15:36:24;12.85;;;6.05;;
24145;SDS011;12308;50.948;4.706;2023-03-21T15:38:56;12.80;;;6.60;;
24145;SDS011;12308;50.948;4.706;2023-03-21T15:41:28;10.15;;;5.50;;
24145;SDS011;12308;50.948;4.706;2023-03-21T15:51:37;10.02;;;5.55;;
24145;SDS011;12308;50.948;4.706;2023-03-21T15:54:04;9.68;;;5.40;;
24145;SDS011;12308;50.948;4.706;2023-03-21T15:56:38;11.57;;;6.25;;
24145;SDS011;12308;50.948;4.706;2023-03-21T15:59:06;12.52;;;8.30;;
24145;SDS011;12308;50.948;4.706;2023-03-21T16:01:43;14.25;;;8.00;;
24145;SDS011;12308;50.948;4.706;2023-03-21T16:04:11;12.15;;;7.13;;
24145;SDS011;12308;50.948;4.706;2023-03-21T16:06:37;18.92;;;8.60;;
24145;SDS011;12308;50.948;4.706;2023-03-21T16:09:15;15.63;;;9.02;;
24145;SDS011;12308;50.948;4.706;2023-03-21T16:11:49;19.05;;;10.07;;
24145;SDS011;12308;50.948;4.706;2023-03-21T16:16:46;15.95;;;9.15;;
24145;SDS011;12308;50.948;4.706;2023-03-21T16:19:12;14.00;;;9.35;;
24145;SDS011;12308;50.948;4.706;2023-03-21T16:21:38;22.80;;;9.95;;
24145;SDS011;12308;50.948;4.706;2023-03-21T16:24:05;16.60;;;9.98;;
24145;SDS011;12308;50.948;4.706;2023-03-21T16:26:40;19.40;;;10.80;;
24145;SDS011;12308;50.948;4.706;2023-03-21T16:29:10;28.48;;;14.23;;
24145;SDS011;12308;50.948;4.706;2023-03-21T16:31:37;22.52;;;11.02;;
24145;SDS011;12308;50.948;4.706;2023-03-21T16:34:03;29.83;;;16.83;;
24145;SDS011;12308;50.948;4.706;2023-03-21T16:36:30;16.45;;;10.25;;
24145;SDS011;12308;50.948;4.706;2023-03-21T16:38:58;17.35;;;10.13;;
24145;SDS011;12308;50.948;4.706;2023-03-21T16:41:25;24.77;;;15.10;;
24145;SDS011;12308;50.948;4.706;2023-03-21T16:43:51;19.42;;;11.45;;
24145;SDS011;12308;50.948;4.706;2023-03-21T16:46:21;64.72;;;34.45;;
24145;SDS011;12308;50.948;4.706;2023-03-21T16:48:49;23.85;;;13.95;;
24145;SDS011;12308;50.948;4.706;2023-03-21T16:51:24;19.85;;;11.32;;
24145;SDS011;12308;50.948;4.706;2023-03-21T16:53:55;25.00;;;15.45;;
24145;SDS011;12308;50.948;4.706;2023-03-21T16:56:43;28.15;;;17.10;;
24145;SDS011;12308;50.948;4.706;2023-03-21T16:59:12;32.88;;;18.88;;
24145;SDS011;12308;50.948;4.706;2023-03-21T17:01:39;35.67;;;20.88;;
24145;SDS011;12308;50.948;4.706;2023-03-21T17:04:06;46.83;;;22.77;;
24145;SDS011;12308;50.948;4.706;2023-03-21T17:06:35;44.75;;;24.35;;
24145;SDS011;12308;50.948;4.706;2023-03-21T17:09:08;46.72;;;23.00;;
24145;SDS011;12308;50.948;4.706;2023-03-21T17:11:36;45.83;;;23.27;;
24145;SDS011;12308;50.948;4.706;2023-03-21T17:14:05;44.75;;;23.33;;
24145;SDS011;12308;50.948;4.706;2023-03-21T17:16:32;64.07;;;36.60;;
24145;SDS011;12308;50.948;4.706;2023-03-21T17:18:58;121.43;;;55.75;;